Map

Track Data

SID SEASON NUMBER BASIN SUBBASIN NAME ISO_TIME NATURE LAT LON WMO_WIND WMO_PRES WMO_AGENCY TRACK_TYPE DIST2LAND LANDFALL IFLAG USA_AGENCY USA_ATCF_ID USA_LAT USA_LON USA_RECORD USA_STATUS USA_WIND USA_PRES USA_SSHS USA_R34_NE USA_R34_SE USA_R34_SW USA_R34_NW USA_R50_NE USA_R50_SE USA_R50_SW USA_R50_NW USA_R64_NE USA_R64_SE USA_R64_SW USA_R64_NW USA_POCI USA_ROCI USA_RMW USA_EYE TOKYO_LAT TOKYO_LON TOKYO_GRADE TOKYO_WIND TOKYO_PRES TOKYO_R50_DIR TOKYO_R50_LONG TOKYO_R50_SHORT TOKYO_R30_DIR TOKYO_R30_LONG TOKYO_R30_SHORT TOKYO_LAND CMA_LAT CMA_LON CMA_CAT CMA_WIND CMA_PRES HKO_LAT HKO_LON HKO_CAT HKO_WIND HKO_PRES NEWDELHI_LAT NEWDELHI_LON NEWDELHI_GRADE NEWDELHI_WIND NEWDELHI_PRES NEWDELHI_CI NEWDELHI_DP NEWDELHI_POCI REUNION_LAT REUNION_LON REUNION_TYPE REUNION_WIND REUNION_PRES REUNION_TNUM REUNION_CI REUNION_RMW REUNION_R34_NE REUNION_R34_SE REUNION_R34_SW REUNION_R34_NW REUNION_R50_NE REUNION_R50_SE REUNION_R50_SW REUNION_R50_NW REUNION_R64_NE REUNION_R64_SE REUNION_R64_SW REUNION_R64_NW BOM_LAT BOM_LON BOM_TYPE BOM_WIND BOM_PRES BOM_TNUM BOM_CI BOM_RMW BOM_R34_NE BOM_R34_SE BOM_R34_SW BOM_R34_NW BOM_R50_NE BOM_R50_SE BOM_R50_SW BOM_R50_NW BOM_R64_NE BOM_R64_SE BOM_R64_SW BOM_R64_NW BOM_ROCI BOM_POCI BOM_EYE BOM_POS_METHOD BOM_PRES_METHOD NADI_LAT NADI_LON NADI_CAT NADI_WIND NADI_PRES WELLINGTON_LAT WELLINGTON_LON WELLINGTON_WIND WELLINGTON_PRES DS824_LAT DS824_LON DS824_STAGE DS824_WIND DS824_PRES TD9636_LAT TD9636_LON TD9636_STAGE TD9636_WIND TD9636_PRES TD9635_LAT TD9635_LON TD9635_WIND TD9635_PRES TD9635_ROCI NEUMANN_LAT NEUMANN_LON NEUMANN_CLASS NEUMANN_WIND NEUMANN_PRES MLC_LAT MLC_LON MLC_CLASS MLC_WIND MLC_PRES USA_GUST BOM_GUST BOM_GUST_PER REUNION_GUST REUNION_GUST_PER USA_SEAHGT USA_SEARAD_NE USA_SEARAD_SE USA_SEARAD_SW USA_SEARAD_NW STORM_SPEED STORM_DIR
1927305S08072 1928 63 SI MM NOT_NAMED 1927-10-31 18:00:00 NR -7.90000 71.9000 main 1815 1815 __________O___ -1 -7.90000 71.9000 7 6 271
1927305S08072 1928 63 SI MM NOT_NAMED 1927-10-31 21:00:00 NR -7.89388 71.6109 main 1832 1832 __________P___ -1 -7.89388 71.6109 7 6 271
1927305S08072 1928 63 SI MM NOT_NAMED 1927-11-01 00:00:00 NR -7.89013 71.3175 main 1850 1850 __________P___ -1 -7.89013 71.3175 7 6 270
1927305S08072 1928 63 SI MM NOT_NAMED 1927-11-01 03:00:00 NR -7.89132 71.0153 main 1868 1868 __________P___ -1 -7.89132 71.0153 7 6 269
1927305S08072 1928 63 SI MM NOT_NAMED 1927-11-01 06:00:00 NR -7.90000 70.7000 main 1887 1887 __________O___ -1 -7.90000 70.7000 7 6 268
1927305S08072 1928 63 SI MM NOT_NAMED 1927-11-01 09:00:00 NR -7.91776 70.3684 main 1906 1902 __________P___ -1 -7.91776 70.3684 7 7 266
1927305S08072 1928 63 SI MM NOT_NAMED 1927-11-01 12:00:00 NR -7.94242 70.0225 main 1902 1871 __________P___ -1 -7.94242 70.0225 7 7 266
1927305S08072 1928 63 SI MM NOT_NAMED 1927-11-01 15:00:00 NR -7.97086 69.6653 main 1871 1842 __________P___ -1 -7.97086 69.6653 7 7 265
1927305S08072 1928 63 SI MM NOT_NAMED 1927-11-01 18:00:00 NR -8.00000 69.3000 main 1842 1820 __________O___ -1 -8.00000 69.3000 7 7 266
1927305S08072 1928 63 SI MM NOT_NAMED 1927-11-01 21:00:00 NR -8.02493 68.9322 main 1813 1792 __________P___ -1 -8.02493 68.9322 7 7 266
1927305S08072 1928 63 SI MM NOT_NAMED 1927-11-02 00:00:00 NR -8.04990 68.5575 main 1792 1755 __________P___ -1 -8.04990 68.5575 7 7 266
1927305S08072 1928 63 SI MM NOT_NAMED 1927-11-02 03:00:00 NR -8.07492 68.1790 main 1755 1728 __________P___ -1 -8.07492 68.1790 7 8 266
1927305S08072 1928 63 SI MM NOT_NAMED 1927-11-02 06:00:00 NR -8.10000 67.8000 main 1728 1701 __________O___ -1 -8.10000 67.8000 7 8 266
1927305S08072 1928 63 SI MM NOT_NAMED 1927-11-02 09:00:00 NR -8.12515 67.3722 main 1701 1675 __________P___ -1 -8.12515 67.3722 7 8 267
1927305S08072 1928 63 SI MM NOT_NAMED 1927-11-02 12:00:00 NR -8.15023 66.9526 main 1666 1640 __________P___ -1 -8.15023 66.9526 7 8 266
1927305S08072 1928 63 SI MM NOT_NAMED 1927-11-02 15:00:00 NR -8.17517 66.5816 main 1640 1622 __________P___ -1 -8.17517 66.5816 7 6 266
1927305S08072 1928 63 SI MM NOT_NAMED 1927-11-02 18:00:00 NR -8.20000 66.3000 main 1622 1616 __________O___ -1 -8.20000 66.3000 7 3 262
1927305S08072 1928 63 SI MM NOT_NAMED 1927-11-02 21:00:00 NR -8.22447 66.2458 main 1616 1616 __________P___ -1 -8.22447 66.2458 7 1 224
1927305S08072 1928 63 SI MM NOT_NAMED 1927-11-03 00:00:00 NR -8.24919 66.2673 main 1622 1612 __________P___ -1 -8.24919 66.2673 7 1 153
1927305S08072 1928 63 SI MM NOT_NAMED 1927-11-03 03:00:00 NR -8.27432 66.2552 main 1612 1600 __________P___ -1 -8.27432 66.2552 7 2 253
1927305S08072 1928 63 SI MM NOT_NAMED 1927-11-03 06:00:00 NR -8.30000 66.1000 main 1600 1570 __________O___ -1 -8.30000 66.1000 7 6 265
1927305S08072 1928 63 SI MM NOT_NAMED 1927-11-03 09:00:00 NR -8.32591 65.6094 main 1570 1536 __________P___ -1 -8.32591 65.6094 7 11 267
1927305S08072 1928 63 SI MM NOT_NAMED 1927-11-03 12:00:00 NR -8.35134 64.9750 main 1527 1489 __________P___ -1 -8.35134 64.9750 7 13 268
1927305S08072 1928 63 SI MM NOT_NAMED 1927-11-03 15:00:00 NR -8.37595 64.3031 main 1489 1460 __________P___ -1 -8.37595 64.3031 7 13 268
1927305S08072 1928 63 SI MM NOT_NAMED 1927-11-03 18:00:00 NR -8.40000 63.7000 main 1460 1441 __________O___ -1 -8.40000 63.7000 7 10 267
1927305S08072 1928 63 SI MM NOT_NAMED 1927-11-03 21:00:00 NR -8.42450 63.3057 main 1441 1428 __________P___ -1 -8.42450 63.3057 7 7 266
1927305S08072 1928 63 SI MM NOT_NAMED 1927-11-04 00:00:00 NR -8.44941 62.9951 main 1428 1409 __________P___ -1 -8.44941 62.9951 7 6 265
1927305S08072 1928 63 SI MM NOT_NAMED 1927-11-04 03:00:00 NR -8.47464 62.7369 main 1405 1397 __________P___ -1 -8.47464 62.7369 7 5 264
1927305S08072 1928 63 SI MM NOT_NAMED 1927-11-04 06:00:00 NR -8.50000 62.5000 main 1397 1389 __________O___ -1 -8.50000 62.5000 7 5 265
1927305S08072 1928 63 SI MM NOT_NAMED 1927-11-04 09:00:00 NR -8.52080 62.2437 main 1385 1378 __________P___ -1 -8.52080 62.2437 7 5 265
1927305S08072 1928 63 SI MM NOT_NAMED 1927-11-04 12:00:00 NR -8.54231 61.9999 main 1378 1360 __________P___ -1 -8.54231 61.9999 7 5 264
1927305S08072 1928 63 SI MM NOT_NAMED 1927-11-04 15:00:00 NR -8.56768 61.7562 main 1360 1350 __________P___ -1 -8.56768 61.7562 7 5 263
1927305S08072 1928 63 SI MM NOT_NAMED 1927-11-04 18:00:00 NR -8.60000 61.5000 main 1350 1329 __________O___ -1 -8.60000 61.5000 7 6 261
1927305S08072 1928 63 SI MM NOT_NAMED 1927-11-04 21:00:00 NR -8.65102 61.1941 main 1325 1294 __________P___ -1 -8.65102 61.1941 7 6 260
1927305S08072 1928 63 SI MM NOT_NAMED 1927-11-05 00:00:00 NR -8.70762 60.8776 main 1294 1259 __________P___ -1 -8.70762 60.8776 7 6 260
1927305S08072 1928 63 SI MM NOT_NAMED 1927-11-05 03:00:00 NR -8.76040 60.5723 main 1259 1229 __________P___ -1 -8.76040 60.5723 7 6 261
1927305S08072 1928 63 SI MM NOT_NAMED 1927-11-05 06:00:00 NR -8.80000 60.3000 main 1229 1209 __________O___ -1 -8.80000 60.3000 7 5 264
1927305S08072 1928 63 SI MM NOT_NAMED 1927-11-05 09:00:00 NR -8.81017 60.0931 main 1209 1189 __________P___ -1 -8.81017 60.0931 7 4 269
1927305S08072 1928 63 SI MM NOT_NAMED 1927-11-05 12:00:00 NR -8.80732 59.9199 main 1189 1179 __________P___ -1 -8.80732 59.9199 7 3 272
1927305S08072 1928 63 SI MM NOT_NAMED 1927-11-05 15:00:00 NR -8.80082 59.7618 main 1179 1159 __________P___ -1 -8.80082 59.7618 7 3 271
1927305S08072 1928 63 SI MM NOT_NAMED 1927-11-05 18:00:00 NR -8.80000 59.6000 main 1159 1139 __________O___ -1 -8.80000 59.6000 7 3 268
1927305S08072 1928 63 SI MM NOT_NAMED 1927-11-05 21:00:00 NR -8.81199 59.4197 main 1139 1119 __________P___ -1 -8.81199 59.4197 7 4 265
1927305S08072 1928 63 SI MM NOT_NAMED 1927-11-06 00:00:00 NR -8.83517 59.2226 main 1119 1094 __________P___ -1 -8.83517 59.2226 7 4 262
1927305S08072 1928 63 SI MM NOT_NAMED 1927-11-06 03:00:00 NR -8.86577 59.0141 main 1094 1075 __________P___ -1 -8.86577 59.0141 7 4 261
1927305S08072 1928 63 SI MM NOT_NAMED 1927-11-06 06:00:00 NR -8.90000 58.8000 main 1075 __________O___ -1 -8.90000 58.8000 7 4 261

About IBTrACS Database

This database is a web-friendly format of International Best Track Archive for Climate Stewardship (IBTrACS), a global best track data archive curated by NOAA dating back to 1842.

Updated: 2021-12-03